| Date | Time | Temp. (oF) | Dew Point (oF) | Rel. Hum. (%) | Press. (in.) | Wind Dir. | Wind Speed (mph) | Hourly Rainfall (in.) |
|
|---|---|---|---|---|---|---|---|---|---|
| 1 | 12/05 | 00:00 | 39 | 33 | 79 | 30.06 | WNW | 8 | 0.00 |
| 2 | 12/04 | 23:00 | 40 | 31 | 71 | 30.10 | WNW | 6 | 0.00 |
| 3 | 12/04 | 22:00 | 39 | 30 | 70 | 30.12 | WNW | 2 | 0.00 |
| 4 | 12/04 | 21:00 | 39 | 30 | 70 | 30.15 | WNW | 1 | 0.00 |
| 5 | 12/04 | 20:00 | 38 | 30 | 75 | 30.14 | WNW | 2 | 0.00 |
| 6 | 12/04 | 19:00 | 39 | 28 | 67 | 30.17 | WNW | 0 | 0.00 |
| 7 | 12/04 | 18:00 | 41 | 29 | 64 | 30.19 | WNW | 3 | 0.00 |
| 8 | 12/04 | 17:00 | 42 | 28 | 59 | 30.19 | WNW | 0 | 0.00 |
| 9 | 12/04 | 16:00 | 43 | 26 | 52 | 30.19 | SW | 0 | 0.00 |
| 10 | 12/04 | 15:00 | 45 | 26 | 49 | 30.18 | WNW | 3 | 0.00 |
| 11 | 12/04 | 14:00 | 45 | 27 | 51 | 30.21 | WNW | 3 | 0.00 |
| 12 | 12/04 | 13:00 | 44 | 27 | 53 | 30.22 | WNW | 5 | 0.00 |
| 13 | 12/04 | 12:00 | 43 | 28 | 57 | 30.24 | WSW | 2 | 0.00 |
| 14 | 12/04 | 11:00 | 43 | 28 | 56 | 30.26 | WNW | 3 | 0.00 |
| 15 | 12/04 | 10:00 | 42 | 28 | 59 | 30.27 | WNW | 4 | 0.00 |
| 16 | 12/04 | 09:00 | 41 | 29 | 63 | 30.26 | WNW | 3 | 0.00 |
| 17 | miss | miss | miss | miss | miss | miss | miss | miss | |
| 18 | 12/03 | 14:12 | 46 | 31 | 56 | 30.12 | SW | 3 | 0.00 |
| 19 | miss | miss | miss | miss | miss | miss | miss | miss | |
| 20 | 12/03 | 14:10 | 46 | 30 | 55 | 30.12 | S | 11 | 0.00 |
| 21 | miss | miss | miss | miss | miss | miss | miss | miss | |
| 22 | 12/03 | 14:08 | 46 | 30 | 55 | 30.12 | SSE | 7 | 0.00 |
| 23 | miss | miss | miss | miss | miss | miss | miss | miss | |
| 24 | 12/03 | 14:06 | 46 | 30 | 54 | 30.12 | WNW | 10 | 0.00 |
| 25 | miss | miss | miss | miss | miss | miss | miss | miss | |
| 26 | 12/03 | 14:05 | 46 | 30 | 55 | 30.11 | W | 8 | 0.00 |
| 27 | miss | miss | miss | miss | miss | miss | miss | miss | |
| 28 | 12/03 | 14:05 | 46 | 30 | 55 | 30.11 | W | 8 | 0.00 |
| 29 | miss | miss | miss | miss | miss | miss | miss | miss | |
| 30 | 12/03 | 14:05 | 46 | 30 | 55 | 30.11 | W | 8 | 0.00 |
| 31 | miss | miss | miss | miss | miss | miss | miss | miss | |
| 32 | 12/03 | 14:05 | 46 | 30 | 55 | 30.11 | W | 8 | 0.00 |
| 33 | miss | miss | miss | miss | miss | miss | miss | miss | |
| 34 | 12/03 | 14:05 | 46 | 30 | 55 | 30.11 | W | 8 | 0.00 |
| 35 | 12/03 | 14:00 | 47 | 31 | 54 | 30.11 | WNW | 8 | 0.00 |
| 36 | 12/03 | 13:00 | 46 | 32 | 59 | 30.14 | WNW | 11 | 0.00 |
| 37 | 12/03 | 12:00 | 45 | 32 | 61 | 30.16 | W | 5 | 0.00 |
| 38 | 12/03 | 11:00 | 44 | 31 | 61 | 30.17 | WNW | 5 | 0.00 |
| 39 | 12/03 | 10:00 | 43 | 31 | 63 | 30.16 | WNW | 8 | 0.00 |
| 40 | 12/03 | 09:00 | 42 | 31 | 66 | 30.14 | SE | 4 | 0.00 |
| 41 | 12/03 | 08:00 | 40 | 29 | 67 | 30.12 | WNW | 7 | 0.00 |
| 42 | 12/03 | 07:00 | 40 | 29 | 67 | 30.11 | WNW | 6 | 0.00 |
| 43 | 12/03 | 06:00 | 41 | 30 | 65 | 30.09 | WNW | 6 | 0.00 |
| 44 | 12/03 | 05:00 | 40 | 28 | 64 | 30.07 | WNW | 16 | 0.00 |
| 45 | 12/03 | 04:00 | 41 | 29 | 63 | 30.05 | WNW | 2 | 0.00 |
| 46 | 12/03 | 03:00 | 38 | 28 | 68 | 30.05 | SE | 8 | 0.00 |
| 47 | 12/03 | 02:00 | 39 | 28 | 67 | 30.06 | WNW | 1 | 0.00 |
| 48 | 12/03 | 01:00 | 40 | 29 | 65 | 30.04 | WNW | 3 | 0.00 |
| 49 | 12/03 | 00:00 | 40 | 29 | 65 | 30.03 | WNW | 9 | 0.00 |
| 50 | 12/02 | 23:00 | 41 | 29 | 63 | 30.04 | WNW | 5 | 0.00 |
| 51 | 12/02 | 22:00 | 40 | 28 | 64 | 30.04 | WNW | 4 | 0.00 |
| 52 | 12/02 | 21:00 | 40 | 28 | 64 | 30.03 | WNW | 5 | 0.00 |
| 53 | 12/02 | 20:00 | 41 | 29 | 63 | 30.02 | WNW | 11 | 0.00 |
| 54 | 12/02 | 19:00 | 41 | 29 | 63 | 30.03 | WNW | 8 | 0.00 |
| 55 | 12/02 | 18:00 | 41 | 28 | 62 | 30.03 | WNW | 10 | 0.00 |
| 56 | 12/02 | 17:00 | 41 | 28 | 60 | 30.02 | W | 12 | 0.00 |
| 57 | 12/02 | 16:00 | 43 | 28 | 56 | 29.99 | WNW | 7 | 0.00 |
| 58 | 12/02 | 15:00 | 45 | 28 | 52 | 29.99 | WNW | 9 | 0.00 |
| 59 | 12/02 | 14:00 | 47 | 27 | 46 | 29.98 | WNW | 3 | 0.00 |
| 60 | 12/02 | 13:00 | 47 | 28 | 49 | 29.98 | WNW | 7 | 0.00 |
| 61 | 12/02 | 12:00 | 47 | 28 | 48 | 30.00 | WNW | 13 | 0.00 |
| 62 | 12/02 | 11:00 | 45 | 30 | 57 | 30.01 | WNW | 9 | 0.00 |
| 63 | 12/02 | 10:00 | 43 | 30 | 62 | 30.03 | WNW | 5 | 0.00 |
| 64 | 12/02 | 09:00 | 41 | 29 | 63 | 30.01 | WNW | 9 | 0.00 |
| 65 | 12/02 | 08:00 | 39 | 28 | 67 | 30.01 | WNW | 3 | 0.00 |
| 66 | 12/02 | 07:00 | 38 | 28 | 67 | 29.99 | WNW | 4 | 0.00 |
| 67 | 12/02 | 06:00 | 38 | 27 | 66 | 29.99 | WNW | 3 | 0.00 |